Aérodrome :
LOGIN :

S'inscrire | Disclaimer

   EN    FR    IT 

 










Légende :    VFR   VFR Marginal   IFR   IFR Intensif   IFR Très Intensif
Visi : 
Plafond : 
>= 8 km
>= 3000ft
5 à 8 km
1000 à 3000 ft
1500m à 5 km
500 à 1000 ft
800 à 1500m
200 à 500 ft
< 800m
< 200 ft
Symboles :   Orages  Brouillard  Fortes neiges  Fortes précipitations  Vent > 20 kt
SIGMETs :   Divers  Orages  Givrage  Turbulence  Onde Orograph.  Cendres Volcan.







- Altitude de l'aérodrome : 13 ft
- Code IATA : LYX
- Voir les cartes d'approche


EGMD - Lydd

DERNIER METAR :
  • 280620Z AUTO 30006KT 1000 -DZ BKN002/// BKN005/// OVC008/// 17/17 Q0997 RERA

METARs EXPIRÉS :
  • 280550Z AUTO 31004KT 0600 -RA FG FEW003/// SCT006/// BKN010/// 16/16 Q0997 RERA
  • 280520Z AUTO 33004KT 1000 -RA FEW004/// SCT008/// BKN020/// 16/16 Q0997 RERA
  • 280450Z AUTO 33005KT 2300 BR FEW003/// SCT009/// OVC014/// 17/17 Q0997
  • 280420Z AUTO 30003KT 2600 BR FEW003/// SCT007/// BKN010/// 17/17 Q0997
  • 280350Z AUTO 32004KT 2200 -RA SCT007/// OVC011/// 17/17 Q0997 RERA

TAF AMD TAF EGMD
Valide du 28 à 06h jusqu'au 28 à 15h UTC


280604Z 2806/2815 30003KT 0600 FG BKN003
BECMG 2806/2809 24010KT 8000 NSW BKN011
BECMG 2809/2812 9999 SCT020
PROB30
TEMPO 2812/2815 23020KT 8000 -SHRA BKN014
ATIS : +44 1797 322 422
Pas de NOTAMs connus pour ce terrain.
1 SIGMET publié pour la FIR London (EGTT) :
 
Orages noyés dans la masse
EGTT SIGMET 01 VALID 280600/280800 EGRR
EGTT LONDON FIR EMBD TS OBS WI N5255 E00110 - N5348 E00110 - N5349 E00356 - N5255 E00309 - N5255 E00110 TOP FL370 MOV NNW 15KT NC=



MET'MAP, la Météo Aéronautique d'un coup d'oeil ! - Copyright ORBIFLY Décembre 2007 - Disclaimer

ORBIFLY MET'MAP TEAM :

Programmation & Développement : Alexandra Zaïnal
Conception & Développement : Baudouin d'Aumeries
Co-Programmation & Développement : Marc-Olivier Méhu
Soutien technique & logistique : Manuel Goepfert

Contact : metmap@orbifly.com




SOURCES & CREDITS :

   NOAA